Anjou, Canada
Current Conditions -  °F | °C
As of 4:00 AM on Sunday 26 Oct 2014 (Local Time) from CYHU Reporting Station
Overcast Overcast  
Wind Chill: 41°   Ceiling: 11000
Heat Index: 46°   Visibility: 9mi
Dew Point: 43°   Wind: 10mph
Humidity: 87%   Direction: 260°W
Pressure: 29.39"   Gusts: NA
Location:  45.6°N, 73.53°W
Report Text: CYHU 260800Z AUTO 26009KT 9SM OVC110 08/06 A2939 RMK SLP953
Loading
Personal Weather Stations






























Interactive Weather Map
Tropical Storm Tracking
New forecast layout! Learn more

10-Day Weather Forecast

Advertisements
Track Severe Weather on mobile